createdAt,value
2023-03-06T00:00:54.238Z,58.26
2023-03-06T00:03:23.287Z,58.38
2023-03-06T00:05:51.786Z,57.16
2023-03-06T00:08:20.022Z,57.02
2023-03-06T00:10:48.148Z,56.83
2023-03-06T00:13:19.329Z,56.45
2023-03-06T00:15:48.777Z,56.42
2023-03-06T00:18:17.293Z,57.55
2023-03-06T00:20:46.281Z,57.90
2023-03-06T00:23:14.561Z,57.53
2023-03-06T00:25:44.699Z,59.76
2023-03-06T00:28:14.958Z,60.27
2023-03-06T00:30:44.309Z,58.83
2023-03-06T00:33:12.673Z,59.48
2023-03-06T00:35:41.409Z,60.12
2023-03-06T00:38:12.480Z,60.82
2023-03-06T00:40:40.770Z,61.45
2023-03-06T00:43:09.064Z,61.54
2023-03-06T00:45:37.633Z,61.57
2023-03-06T00:48:05.978Z,61.12
2023-03-06T00:50:35.535Z,61.82
2023-03-06T00:53:03.712Z,61.81
2023-03-06T00:55:33.679Z,62.31
2023-03-06T00:58:02.154Z,62.35
2023-03-06T01:00:30.442Z,61.57
2023-03-06T01:02:58.522Z,61.03
2023-03-06T01:05:26.897Z,61.45
2023-03-06T01:08:05.454Z,62.59
2023-03-06T01:10:34.038Z,62.62
2023-03-06T01:13:02.200Z,61.62
2023-03-06T01:15:30.474Z,61.78
2023-03-06T01:17:59.365Z,61.90
2023-03-06T01:20:28.268Z,61.21
2023-03-06T01:22:56.751Z,61.32
2023-03-06T01:25:26.861Z,60.86
2023-03-06T01:27:55.150Z,61.31
2023-03-06T01:30:23.515Z,61.15
2023-03-06T01:32:51.967Z,60.75
2023-03-06T01:35:20.113Z,60.76
2023-03-06T01:37:51.835Z,61.25
2023-03-06T01:40:20.124Z,62.26
2023-03-06T01:42:49.826Z,61.45
2023-03-06T01:45:18.207Z,60.80
2023-03-06T01:47:46.618Z,61.34
2023-03-06T01:50:15.269Z,60.41
2023-03-06T01:52:52.814Z,61.10
2023-03-06T01:55:25.360Z,62.28
2023-03-06T01:57:58.030Z,62.53
2023-03-06T02:00:28.493Z,63.78
2023-03-06T02:03:11.066Z,63.81
2023-03-06T02:05:41.790Z,63.56
2023-03-06T02:08:12.481Z,62.80
2023-03-06T02:11:02.708Z,63.93
2023-03-06T02:13:31.504Z,64.39
2023-03-06T02:16:00.205Z,64.91
2023-03-06T02:18:29.595Z,64.06
2023-03-06T02:21:01.973Z,64.74
2023-03-06T02:24:13.786Z,65.40
2023-03-06T02:26:42.968Z,65.42
2023-03-06T02:29:11.765Z,64.32
2023-03-06T02:31:39.934Z,63.07
2023-03-06T02:34:14.312Z,63.20
2023-03-06T02:36:49.882Z,63.18
2023-03-06T02:39:25.985Z,62.28
2023-03-06T02:41:54.849Z,62.03
2023-03-06T02:44:24.359Z,63.32
2023-03-06T02:46:52.599Z,63.19
2023-03-06T02:49:20.700Z,61.83
2023-03-06T02:51:48.782Z,65.02
2023-03-06T02:54:18.502Z,66.00
2023-03-06T02:56:47.163Z,66.80
2023-03-06T02:59:15.353Z,68.42
2023-03-06T03:01:43.754Z,68.17
2023-03-06T03:04:11.756Z,66.63
2023-03-06T03:06:40.431Z,68.02
2023-03-06T03:09:08.692Z,67.70
2023-03-06T03:11:37.027Z,67.76
2023-03-06T03:14:05.657Z,67.90
2023-03-06T03:16:33.992Z,69.48
2023-03-06T03:19:02.167Z,69.34
2023-03-06T03:21:30.288Z,68.31
2023-03-06T03:23:58.532Z,67.89
2023-03-06T03:26:28.230Z,68.93
2023-03-06T03:29:16.785Z,68.36
2023-03-06T03:31:44.953Z,66.68
2023-03-06T03:34:13.587Z,67.76
2023-03-06T03:36:42.029Z,69.21
2023-03-06T03:39:10.840Z,69.52
2023-03-06T03:41:39.311Z,69.87
2023-03-06T03:44:09.822Z,70.13
2023-03-06T03:46:38.844Z,70.90
2023-03-06T03:49:10.609Z,70.10
2023-03-06T03:51:38.938Z,68.21
2023-03-06T03:54:07.345Z,69.56
2023-03-06T03:56:40.941Z,72.33
2023-03-06T03:59:13.584Z,72.65
2023-03-06T04:01:48.432Z,72.91
2023-03-06T04:04:16.925Z,72.81
2023-03-06T04:06:45.794Z,72.89
2023-03-06T04:09:14.299Z,72.53
2023-03-06T04:11:42.930Z,70.97
2023-03-06T04:14:11.272Z,70.95
2023-03-06T04:16:39.309Z,71.78
2023-03-06T04:19:07.965Z,71.31
2023-03-06T04:21:36.201Z,70.76
2023-03-06T04:24:04.774Z,71.40
2023-03-06T04:26:32.881Z,72.07
2023-03-06T04:29:01.664Z,71.92
2023-03-06T04:31:29.956Z,72.25
2023-03-06T04:33:58.291Z,72.80
2023-03-06T04:36:28.720Z,72.52
2023-03-06T04:39:00.046Z,71.84
2023-03-06T04:41:28.465Z,71.76
2023-03-06T04:43:56.870Z,72.44
2023-03-06T04:46:25.048Z,72.54
2023-03-06T04:48:53.256Z,72.79
2023-03-06T04:51:21.420Z,73.64
2023-03-06T04:53:52.515Z,74.26
2023-03-06T04:56:20.596Z,73.29
2023-03-06T04:58:48.748Z,72.81
2023-03-06T05:01:17.383Z,71.90
2023-03-06T05:03:45.717Z,70.69
2023-03-06T05:06:13.992Z,71.08
2023-03-06T05:08:42.486Z,72.94
2023-03-06T05:11:10.537Z,74.66
2023-03-06T05:13:38.625Z,74.35
2023-03-06T05:16:07.842Z,73.20
2023-03-06T05:18:36.577Z,71.66
2023-03-06T05:21:06.000Z,70.22
2023-03-06T05:23:37.064Z,69.12
2023-03-06T05:26:11.767Z,68.65
2023-03-06T05:28:40.769Z,71.79
2023-03-06T05:31:08.862Z,72.05
2023-03-06T05:33:38.745Z,72.51
2023-03-06T05:36:09.396Z,74.34
2023-03-06T05:38:38.897Z,73.85
2023-03-06T05:41:07.604Z,73.56
2023-03-06T05:43:35.868Z,73.65
2023-03-06T05:46:05.780Z,74.18
2023-03-06T05:48:35.791Z,72.95
2023-03-06T05:51:05.266Z,73.01
2023-03-06T05:53:33.275Z,73.29
2023-03-06T05:56:04.512Z,73.06
2023-03-06T05:58:33.717Z,72.72
2023-03-06T06:01:08.140Z,72.98
2023-03-06T06:03:36.376Z,72.22
2023-03-06T06:06:05.987Z,71.94
2023-03-06T06:08:34.488Z,71.59
2023-03-06T06:11:04.834Z,71.59
2023-03-06T06:13:33.328Z,70.65
2023-03-06T06:16:16.011Z,70.04
2023-03-06T06:18:44.595Z,69.67
2023-03-06T06:21:14.816Z,69.50
2023-03-06T06:23:43.413Z,69.06
2023-03-06T06:26:11.897Z,68.15
2023-03-06T06:28:40.158Z,65.82
2023-03-06T06:31:12.707Z,60.86
2023-03-06T06:33:41.831Z,57.05
2023-03-06T06:36:18.494Z,50.76
2023-03-06T06:38:47.048Z,47.33
2023-03-06T06:44:08.816Z,42.03
2023-03-06T06:49:26.019Z,37.81
2023-03-06T06:51:54.197Z,35.88
2023-03-06T06:54:22.449Z,34.34
2023-03-06T06:56:50.800Z,32.50
2023-03-06T06:59:20.347Z,30.15
2023-03-06T07:01:48.723Z,29.49
2023-03-06T07:04:18.106Z,28.81
2023-03-06T07:06:46.466Z,27.76
2023-03-06T07:09:14.961Z,26.28
2023-03-06T07:11:42.957Z,24.79
2023-03-06T07:14:11.001Z,23.77
2023-03-06T07:16:39.819Z,23.16
2023-03-06T07:19:08.800Z,21.93
2023-03-06T07:21:36.730Z,21.39
2023-03-06T07:24:05.257Z,21.69
2023-03-06T07:26:34.853Z,21.52
2023-03-06T07:29:04.567Z,21.14
2023-03-06T07:31:32.790Z,22.32
2023-03-06T07:34:02.514Z,21.66
2023-03-06T07:36:34.655Z,21.01
2023-03-06T07:39:02.981Z,22.31
2023-03-06T07:41:31.081Z,22.83
2023-03-06T07:43:59.747Z,23.36
2023-03-06T07:46:28.495Z,23.89
2023-03-06T07:48:56.674Z,24.92
2023-03-06T07:51:25.432Z,25.06
2023-03-06T07:53:53.780Z,25.51
2023-03-06T07:56:21.895Z,25.23
2023-03-06T07:58:49.926Z,26.01
2023-03-06T08:01:20.893Z,24.85
2023-03-06T08:03:50.268Z,24.22
2023-03-06T08:06:23.938Z,24.62
2023-03-06T08:08:54.398Z,25.18
2023-03-06T08:11:25.999Z,25.06
2023-03-06T08:13:55.318Z,25.57
2023-03-06T08:16:26.499Z,25.34
2023-03-06T08:18:55.390Z,26.64
2023-03-06T08:21:28.503Z,27.00
2023-03-06T08:23:57.071Z,27.40
2023-03-06T08:26:29.019Z,27.41
2023-03-06T08:28:59.223Z,26.76
2023-03-06T08:31:31.535Z,25.88
2023-03-06T08:34:03.322Z,24.33
2023-03-06T08:36:31.869Z,24.41
2023-03-06T08:39:00.457Z,22.45
2023-03-06T08:41:29.645Z,20.26
2023-03-06T08:43:58.042Z,20.19
2023-03-06T08:46:28.913Z,19.57
2023-03-06T08:48:57.848Z,19.17
2023-03-06T08:51:26.653Z,20.79
2023-03-06T08:53:56.243Z,21.06
2023-03-06T08:56:30.007Z,19.78
2023-03-06T08:59:01.090Z,18.65
2023-03-06T09:01:31.986Z,18.04
2023-03-06T09:04:02.361Z,19.47
2023-03-06T09:06:33.539Z,19.18
2023-03-06T09:09:02.287Z,19.76
2023-03-06T09:11:30.817Z,20.62
2023-03-06T09:13:59.248Z,21.27
2023-03-06T09:16:27.710Z,22.55
2023-03-06T09:18:57.855Z,22.68
2023-03-06T09:21:28.986Z,24.10
2023-03-06T09:23:57.676Z,24.42
2023-03-06T09:26:39.471Z,24.74
2023-03-06T09:29:12.811Z,25.82
2023-03-06T09:31:40.754Z,26.22
2023-03-06T09:34:09.218Z,27.16
2023-03-06T09:36:49.502Z,29.42
2023-03-06T09:39:25.040Z,29.31
2023-03-06T09:41:54.365Z,29.29
2023-03-06T09:44:26.154Z,28.86
2023-03-06T09:47:22.237Z,28.71
2023-03-06T09:50:05.139Z,27.25
2023-03-06T09:52:41.506Z,27.08
2023-03-06T09:55:19.454Z,27.03
2023-03-06T09:58:07.447Z,27.96
2023-03-06T10:00:39.358Z,28.16
2023-03-06T10:03:31.211Z,27.61
2023-03-06T10:06:07.743Z,29.75
2023-03-06T10:08:57.206Z,28.72
2023-03-06T10:11:39.435Z,29.11
2023-03-06T10:14:16.574Z,28.19
2023-03-06T10:16:44.700Z,30.07
2023-03-06T10:19:20.708Z,28.47
2023-03-06T10:21:59.132Z,28.70
2023-03-06T10:24:47.663Z,29.38
2023-03-06T10:27:54.042Z,29.60
2023-03-06T10:30:40.547Z,28.49
2023-03-06T10:33:09.996Z,27.76
2023-03-06T10:35:37.799Z,27.59
2023-03-06T10:38:19.297Z,26.86
2023-03-06T10:41:12.054Z,26.47
2023-03-06T10:44:05.323Z,26.72
2023-03-06T10:46:35.162Z,27.90
2023-03-06T10:49:06.609Z,28.02
2023-03-06T10:51:35.783Z,27.20
2023-03-06T10:54:19.240Z,26.62
2023-03-06T10:56:48.231Z,27.39
2023-03-06T10:59:17.334Z,26.12
2023-03-06T11:01:59.151Z,25.73
2023-03-06T11:04:31.493Z,26.49
2023-03-06T11:07:19.540Z,26.33
2023-03-06T11:09:56.898Z,24.84
2023-03-06T11:12:37.523Z,25.46
2023-03-06T11:15:14.962Z,26.82
2023-03-06T11:17:58.172Z,25.52
2023-03-06T11:20:51.629Z,25.46
2023-03-06T11:23:35.694Z,26.33
2023-03-06T11:26:15.952Z,25.74
2023-03-06T11:29:08.570Z,27.27
2023-03-06T11:31:43.058Z,28.51
2023-03-06T11:34:42.568Z,27.40
2023-03-06T11:37:33.788Z,28.00
2023-03-06T11:40:13.072Z,26.31
2023-03-06T11:42:49.780Z,26.32
2023-03-06T11:45:26.857Z,27.41
2023-03-06T11:48:22.305Z,26.74
2023-03-06T11:50:53.806Z,27.07
2023-03-06T11:53:30.023Z,27.29
2023-03-06T11:56:19.799Z,27.12
2023-03-06T11:59:10.051Z,27.63
2023-03-06T12:01:45.323Z,27.75
2023-03-06T12:04:42.941Z,28.07
2023-03-06T12:07:29.743Z,27.95
2023-03-06T12:10:13.092Z,27.90
2023-03-06T12:13:13.632Z,27.89
2023-03-06T12:16:07.565Z,28.20
2023-03-06T12:18:54.315Z,28.78
2023-03-06T12:21:38.870Z,28.98
2023-03-06T12:24:16.045Z,29.19
2023-03-06T12:27:09.128Z,29.27
2023-03-06T12:29:56.090Z,28.86
2023-03-06T12:32:43.272Z,28.80
2023-03-06T12:35:30.574Z,28.80
2023-03-06T12:38:35.403Z,27.84
2023-03-06T12:41:23.238Z,27.69
2023-03-06T12:44:09.978Z,27.39
2023-03-06T12:46:45.156Z,27.86
2023-03-06T12:49:32.948Z,27.37
2023-03-06T12:52:05.066Z,27.98
2023-03-06T12:54:39.103Z,28.26
2023-03-06T12:57:10.073Z,28.04
2023-03-06T12:59:48.758Z,28.11
2023-03-06T13:02:20.441Z,29.31
2023-03-06T13:05:22.367Z,30.18
2023-03-06T13:08:33.463Z,30.19
2023-03-06T13:11:32.151Z,30.38
2023-03-06T13:14:00.514Z,29.64
2023-03-06T13:16:32.241Z,29.82
2023-03-06T13:19:20.713Z,30.17
2023-03-06T13:21:54.700Z,29.70
2023-03-06T13:24:30.304Z,29.85
2023-03-06T13:27:10.526Z,29.65
2023-03-06T13:29:38.748Z,29.86
2023-03-06T13:32:18.782Z,30.27
2023-03-06T13:34:56.487Z,30.76
2023-03-06T13:37:25.200Z,30.86
2023-03-06T13:40:16.008Z,30.36
2023-03-06T13:42:44.197Z,30.90
2023-03-06T13:45:45.697Z,30.82
2023-03-06T13:48:43.522Z,31.27
2023-03-06T13:51:24.655Z,30.74
2023-03-06T13:54:34.667Z,31.47
2023-03-06T13:57:48.028Z,30.70
2023-03-06T14:00:35.052Z,31.98
2023-03-06T14:03:03.212Z,31.80
2023-03-06T14:05:44.520Z,31.25
2023-03-06T14:08:17.441Z,32.37
2023-03-06T14:10:48.636Z,32.10
2023-03-06T14:13:22.386Z,32.22
2023-03-06T14:15:53.232Z,32.89
2023-03-06T14:18:44.402Z,33.88
2023-03-06T14:21:14.592Z,34.01
2023-03-06T14:23:45.971Z,34.39
2023-03-06T14:26:35.274Z,34.29
2023-03-06T14:29:04.257Z,34.63
2023-03-06T14:31:36.487Z,35.32
2023-03-06T14:34:07.340Z,36.15
2023-03-06T14:36:48.595Z,36.10
2023-03-06T14:39:31.959Z,36.16
2023-03-06T14:42:17.439Z,36.14
2023-03-06T14:44:47.343Z,36.40
2023-03-06T14:47:31.423Z,36.49
2023-03-06T14:50:35.509Z,36.86
2023-03-06T14:53:06.810Z,36.97
2023-03-06T14:55:36.038Z,36.62
2023-03-06T14:58:28.351Z,37.03
2023-03-06T15:01:01.464Z,37.94
2023-03-06T15:03:43.392Z,37.19
2023-03-06T15:06:20.016Z,37.04
2023-03-06T15:08:57.388Z,37.23
2023-03-06T15:11:25.632Z,38.35
2023-03-06T15:14:02.092Z,39.08
2023-03-06T15:16:31.454Z,38.98
2023-03-06T15:19:01.052Z,38.17
2023-03-06T15:21:37.693Z,38.46
2023-03-06T15:24:32.075Z,38.67
2023-03-06T15:27:04.215Z,38.50
2023-03-06T15:29:33.031Z,38.68
2023-03-06T15:32:34.924Z,39.29
2023-03-06T15:35:34.732Z,39.11
2023-03-06T15:38:24.517Z,39.67
2023-03-06T15:40:57.567Z,39.82
2023-03-06T15:43:25.850Z,39.58
2023-03-06T15:46:01.511Z,40.15
2023-03-06T15:48:29.699Z,40.78
2023-03-06T15:50:58.071Z,41.11
2023-03-06T15:53:26.313Z,41.35
2023-03-06T15:55:55.023Z,41.82
2023-03-06T15:58:26.745Z,42.27
2023-03-06T16:00:54.791Z,41.96
2023-03-06T16:03:23.032Z,41.37
2023-03-06T16:05:51.710Z,42.27
2023-03-06T16:08:19.886Z,41.78
2023-03-06T16:10:48.488Z,43.83
2023-03-06T16:13:23.815Z,43.88
2023-03-06T16:15:52.064Z,45.13
2023-03-06T16:18:20.264Z,45.79
2023-03-06T16:20:49.697Z,46.39
2023-03-06T16:23:18.045Z,47.91
2023-03-06T16:25:49.208Z,48.44
2023-03-06T16:28:17.796Z,49.03
2023-03-06T16:30:46.036Z,49.76
2023-03-06T16:33:14.744Z,48.46
2023-03-06T16:35:44.623Z,48.66
2023-03-06T16:38:12.839Z,50.28
2023-03-06T16:40:43.860Z,50.64
2023-03-06T16:43:13.668Z,50.98
2023-03-06T16:45:42.663Z,52.41
2023-03-06T16:48:16.981Z,52.39
2023-03-06T16:50:45.275Z,52.81
2023-03-06T16:53:14.196Z,54.36
2023-03-06T16:55:42.442Z,54.35
2023-03-06T16:58:10.612Z,53.93
2023-03-06T17:00:38.982Z,55.06
2023-03-06T17:03:07.475Z,56.50
2023-03-06T17:05:37.282Z,57.10
2023-03-06T17:08:05.767Z,55.90
2023-03-06T17:10:34.442Z,56.69
2023-03-06T17:13:02.831Z,56.21
2023-03-06T17:15:30.920Z,53.48
2023-03-06T17:17:59.178Z,52.64
2023-03-06T17:20:27.697Z,55.02
2023-03-06T17:22:56.017Z,55.37
2023-03-06T17:25:24.312Z,55.54
2023-03-06T17:27:52.710Z,55.61
2023-03-06T17:30:21.006Z,56.56
2023-03-06T17:32:49.365Z,56.45
2023-03-06T17:35:19.859Z,56.51
2023-03-06T17:37:48.267Z,57.01
2023-03-06T17:40:16.842Z,56.99
2023-03-06T17:43:05.498Z,58.44
2023-03-06T17:45:36.649Z,59.00
2023-03-06T17:48:05.017Z,59.69
2023-03-06T17:50:33.317Z,59.12
2023-03-06T17:53:01.460Z,58.19
2023-03-06T17:55:29.960Z,58.50
2023-03-06T17:57:57.994Z,58.40
2023-03-06T18:00:26.216Z,58.00
2023-03-06T18:02:54.273Z,58.17
2023-03-06T18:05:22.756Z,57.55
2023-03-06T18:07:50.929Z,57.18
2023-03-06T18:10:19.188Z,56.94
2023-03-06T18:12:47.476Z,58.12
2023-03-06T18:15:15.984Z,58.90
2023-03-06T18:17:44.244Z,57.99
2023-03-06T18:20:12.719Z,57.48
2023-03-06T18:22:40.927Z,57.44
2023-03-06T18:25:10.039Z,58.85
2023-03-06T18:27:38.175Z,58.59
2023-03-06T18:30:06.799Z,58.24
2023-03-06T18:32:35.348Z,59.69
2023-03-06T18:35:03.506Z,58.77
2023-03-06T18:37:31.601Z,58.01
2023-03-06T18:39:59.638Z,57.10
2023-03-06T18:42:27.830Z,56.70
2023-03-06T18:44:55.906Z,60.37
2023-03-06T18:47:23.911Z,61.36
2023-03-06T18:49:52.099Z,60.55
2023-03-06T18:52:20.532Z,61.20
2023-03-06T18:54:50.541Z,62.49
2023-03-06T18:57:18.801Z,61.62
2023-03-06T18:59:46.950Z,61.13
2023-03-06T19:02:15.175Z,61.56
2023-03-06T19:04:43.357Z,63.03
2023-03-06T19:07:13.818Z,63.31
2023-03-06T19:09:44.120Z,63.82
2023-03-06T19:12:12.811Z,64.58
2023-03-06T19:14:40.960Z,64.17
2023-03-06T19:17:09.458Z,62.86
2023-03-06T19:19:37.616Z,63.13
2023-03-06T19:22:05.902Z,61.07
2023-03-06T19:24:34.254Z,62.35
2023-03-06T19:27:02.446Z,63.27
2023-03-06T19:29:32.587Z,63.49
2023-03-06T19:32:01.396Z,63.36
2023-03-06T19:34:29.846Z,62.57
2023-03-06T19:36:57.876Z,62.53
2023-03-06T19:39:26.141Z,61.55
2023-03-06T19:41:54.203Z,62.08
2023-03-06T19:44:23.259Z,62.21
2023-03-06T19:46:51.336Z,62.01
2023-03-06T19:49:22.582Z,60.76
2023-03-06T19:51:50.690Z,58.73
2023-03-06T19:54:23.507Z,57.81
2023-03-06T19:56:51.713Z,56.91
2023-03-06T19:59:19.877Z,56.68
2023-03-06T20:01:48.036Z,55.46
2023-03-06T20:04:17.103Z,54.87
2023-03-06T20:06:46.802Z,54.07
2023-03-06T20:09:14.943Z,53.57
2023-03-06T20:11:43.217Z,53.12
2023-03-06T20:14:13.394Z,52.83
2023-03-06T20:16:41.534Z,52.52
2023-03-06T20:19:11.452Z,52.59
2023-03-06T20:21:39.590Z,52.55
2023-03-06T20:24:09.299Z,52.50
2023-03-06T20:26:38.628Z,52.46
2023-03-06T20:29:19.035Z,52.60
2023-03-06T20:31:47.181Z,53.14
2023-03-06T20:34:15.681Z,53.07
2023-03-06T20:36:44.065Z,53.35
2023-03-06T20:39:17.596Z,53.71
2023-03-06T20:41:46.852Z,53.58
2023-03-06T20:44:18.153Z,53.67
2023-03-06T20:46:46.826Z,53.99
2023-03-06T20:49:15.272Z,54.44
2023-03-06T20:51:43.578Z,54.45
2023-03-06T20:54:14.377Z,54.72
2023-03-06T20:56:46.009Z,54.61
2023-03-06T20:59:15.656Z,54.67
2023-03-06T21:01:45.402Z,54.07
2023-03-06T21:04:15.201Z,53.98
2023-03-06T21:06:46.669Z,54.05
2023-03-06T21:09:16.827Z,54.17
2023-03-06T21:11:46.017Z,53.71
2023-03-06T21:14:14.900Z,53.78
2023-03-06T21:16:43.441Z,53.85
2023-03-06T21:19:12.106Z,53.77
2023-03-06T21:21:40.802Z,53.79
2023-03-06T21:24:08.973Z,53.92
2023-03-06T21:26:37.285Z,53.88
2023-03-06T21:29:05.539Z,53.76
2023-03-06T21:31:34.373Z,53.98
2023-03-06T21:34:04.991Z,53.68
2023-03-06T21:36:33.737Z,53.82
2023-03-06T21:39:01.916Z,53.79
2023-03-06T21:42:04.295Z,53.77
2023-03-06T21:44:35.252Z,54.21
2023-03-06T21:47:12.376Z,54.48
2023-03-06T21:49:43.508Z,54.64
2023-03-06T21:52:11.861Z,54.20
2023-03-06T21:54:40.286Z,53.68
2023-03-06T21:57:08.463Z,53.81
2023-03-06T21:59:37.621Z,54.19
2023-03-06T22:02:06.278Z,53.65
2023-03-06T22:04:34.820Z,53.87
2023-03-06T22:07:03.040Z,54.97
2023-03-06T22:09:31.364Z,56.26
2023-03-06T22:11:59.789Z,56.38
2023-03-06T22:14:28.018Z,56.47
2023-03-06T22:16:58.889Z,56.74
2023-03-06T22:19:28.100Z,56.27
2023-03-06T22:21:55.993Z,56.22
2023-03-06T22:24:24.397Z,56.20
2023-03-06T22:26:52.518Z,55.99
2023-03-06T22:29:20.712Z,56.29
2023-03-06T22:31:48.839Z,56.63
2023-03-06T22:34:17.274Z,56.37
2023-03-06T22:36:45.425Z,57.29
2023-03-06T22:39:14.626Z,57.26
2023-03-06T22:41:42.560Z,56.71
2023-03-06T22:44:16.913Z,57.01
2023-03-06T22:46:46.204Z,57.23
2023-03-06T22:49:15.907Z,57.18
2023-03-06T22:51:43.996Z,57.88
2023-03-06T22:54:12.064Z,57.67
2023-03-06T22:56:40.128Z,58.19
2023-03-06T22:59:08.312Z,58.33
2023-03-06T23:01:36.513Z,58.28
2023-03-06T23:04:10.872Z,58.26
2023-03-06T23:06:41.851Z,59.17
2023-03-06T23:09:17.423Z,59.46
2023-03-06T23:12:04.340Z,59.52
2023-03-06T23:14:51.366Z,59.37
2023-03-06T23:17:37.935Z,59.26
2023-03-06T23:20:24.843Z,59.65
2023-03-06T23:23:11.655Z,60.50
2023-03-06T23:25:43.737Z,61.22
2023-03-06T23:28:12.228Z,62.08
2023-03-06T23:30:41.016Z,63.20
2023-03-06T23:33:09.800Z,63.73
2023-03-06T23:35:41.587Z,64.18
2023-03-06T23:38:09.860Z,66.44
2023-03-06T23:40:39.124Z,64.29
2023-03-06T23:43:07.492Z,64.75
2023-03-06T23:45:35.640Z,67.06
2023-03-06T23:48:07.130Z,67.01
2023-03-06T23:50:35.436Z,66.54
2023-03-06T23:53:03.583Z,65.92
2023-03-06T23:55:32.062Z,67.15
2023-03-06T23:58:00.230Z,68.70
